Taisho Maru — JI3307 — position and weather

sailwx.info

Track history (hours):
 
Tides and Currents Weather Stations Pressure Air Temp Water Temp Dewpoint Dewpoint Depression Visibility Wind Speed Wind Dir Waves Ship Positions

Taisho Maru

Last reported at 2014-Sep-30 15:10 UTC. Time now 2014-Sep-30 18:01 UTC.
Position N 34°39' E 134°49'.

Length 93 m; draft 6.3 m.

Type: Cargo ship. MMSI: 431300084.

Date/timePositionNaut miles runAvg speedWind from/ knotsBaromVisibWave heightAir tempDewpointWater temp
2014-Sep-30 15:10N 34°39' E 134°49'914.2
2014-Sep-30 14:33N 34°38' E 134°60'1110.7
2014-Sep-30 13:33N 34°27' E 135°03'1211.9
2014-Sep-30 12:33N 34°15' E 135°01'6 5.9
2014-Sep-30 11:33N 34°14' E 135°08'0 0.0
2014-Sep-30 10:33N 34°14' E 135°08'0 0.0
2014-Sep-30 09:33N 34°14' E 135°08'0 0.0
2014-Sep-30 08:33N 34°14' E 135°08'0 0.0
2014-Sep-30 07:33N 34°14' E 135°08'0 0.0
2014-Sep-30 06:33N 34°14' E 135°08'1 0.6
2014-Sep-30 05:34N 34°14' E 135°07'1010.1
2014-Sep-30 04:33N 34°05' E 135°02'  
2014-Sep-25 20:33N 33°59' E 134°58'1312.8
2014-Sep-25 19:33N 34°12' E 134°58'1413.8
2014-Sep-25 18:33N 34°26' E 135°01'1211.6
2014-Sep-25 17:34N 34°37' E 135°01'1613.9
2014-Sep-25 16:26N 34°40' E 134°42'2 0.1
2014-Sep-24 08:27N 34°41' E 134°41'1112.7
2014-Sep-24 07:33N 34°37' E 134°54'10 9.9
2014-Sep-24 06:33N 34°34' E 135°05'1412.8
2014-Sep-24 05:27N 34°20' E 135°00'7 8.0
2014-Sep-24 04:33N 34°15' E 135°05'2 2.1
2014-Sep-24 03:34N 34°14' E 135°08'0 0.0
2014-Sep-24 02:32N 34°14' E 135°08'0 0.0
2014-Sep-24 01:32N 34°14' E 135°08'0 0.0
2014-Sep-24 00:32N 34°14' E 135°08'0 0.0
2014-Sep-23 23:32N 34°14' E 135°08'2 2.6
2014-Sep-23 22:33N 34°14' E 135°05'1614.5
2014-Sep-23 21:29N 33°59' E 135°00'  
Track history (hours):
 
Tides and Currents Weather Stations Pressure Air Temp Water Temp Dewpoint Dewpoint Depression Visibility Wind Speed Wind Dir Waves Ship Positions

Taisho Maru

Last reported at 2014-Sep-30 15:10 UTC. Time now 2014-Sep-30 18:01 UTC.
Position N 34°39' E 134°49'.

Length 93 m; draft 6.3 m.

Type: Cargo ship. MMSI: 431300084.

Date/timePositionNaut miles runAvg speedWind from/ knotsBaromVisibWave heightAir tempDewpointWater temp
2014-Sep-30 15:10N 34°39' E 134°49'914.2
2014-Sep-30 14:33N 34°38' E 134°60'1110.7
2014-Sep-30 13:33N 34°27' E 135°03'1211.9
2014-Sep-30 12:33N 34°15' E 135°01'6 5.9
2014-Sep-30 11:33N 34°14' E 135°08'0 0.0
2014-Sep-30 10:33N 34°14' E 135°08'0 0.0
2014-Sep-30 09:33N 34°14' E 135°08'0 0.0
2014-Sep-30 08:33N 34°14' E 135°08'0 0.0
2014-Sep-30 07:33N 34°14' E 135°08'0 0.0
2014-Sep-30 06:33N 34°14' E 135°08'1 0.6
2014-Sep-30 05:34N 34°14' E 135°07'1010.1
2014-Sep-30 04:33N 34°05' E 135°02'  
2014-Sep-25 20:33N 33°59' E 134°58'1312.8
2014-Sep-25 19:33N 34°12' E 134°58'1413.8
2014-Sep-25 18:33N 34°26' E 135°01'1211.6
2014-Sep-25 17:34N 34°37' E 135°01'1613.9
2014-Sep-25 16:26N 34°40' E 134°42'2 0.1
2014-Sep-24 08:27N 34°41' E 134°41'1112.7
2014-Sep-24 07:33N 34°37' E 134°54'10 9.9
2014-Sep-24 06:33N 34°34' E 135°05'1412.8
2014-Sep-24 05:27N 34°20' E 135°00'7 8.0
2014-Sep-24 04:33N 34°15' E 135°05'2 2.1
2014-Sep-24 03:34N 34°14' E 135°08'0 0.0
2014-Sep-24 02:32N 34°14' E 135°08'0 0.0
2014-Sep-24 01:32N 34°14' E 135°08'0 0.0
2014-Sep-24 00:32N 34°14' E 135°08'0 0.0
2014-Sep-23 23:32N 34°14' E 135°08'2 2.6
2014-Sep-23 22:33N 34°14' E 135°05'1614.5
2014-Sep-23 21:29N 33°59' E 135°00'  

Dump ship's entire track history